<?xml version="1.0" encoding="UTF-8" standalone="no" ?>
<gpx xmlns="http://www.topografix.com/GPX/1/1" xmlns:xsi="http://www.w3.org/2001/XMLSchema-instance" xsi:schemaLocation="http://www.topografix.com/GPX/1/1 http://www.topografix.com/GPX/1/1/gpx.xsd" version="1.1" creator="VisuGPX - https://www.visugpx.com">
  <metadata>
    <name>ARQUES LA SEYNE SUR MER 1497 KM</name>
    <desc><![CDATA[Rando de Arques dans le Pas de Calais jusque La Seyne sur Mer dans le Var, 1497 km]]></desc>
  </metadata>
  <trk>
    <name><![CDATA[Randonnée du 05/10/2021 à 16:53]]></name>
    <extensions>
      <line xmlns="http://www.topografix.com/GPX/gpx_style/0/2">
        <color>FFFF00</color>
        <width>4</width>
      </line>
    </extensions>
    <trkseg>
      <trkpt lat="50.10497" lon="2.84761">
        <ele>121</ele>
        <time>2021-10-05T17:14:34+02:00</time>
      </trkpt>
      <trkpt lat="50.10538" lon="2.84868">
        <ele>123</ele>
        <time>2021-10-05T17:14:39+02:00</time>
      </trkpt>
      <trkpt lat="50.10382" lon="2.84951">
        <ele>123</ele>
        <time>2021-10-05T17:14:44+02:00</time>
      </trkpt>
      <trkpt lat="50.1031" lon="2.84951">
        <ele>123</ele>
        <time>2021-10-05T17:14:49+02:00</time>
      </trkpt>
      <trkpt lat="50.10133" lon="2.85144">
        <ele>123</ele>
        <time>2021-10-05T17:14:54+02:00</time>
      </trkpt>
      <trkpt lat="50.09883" lon="2.85581">
        <ele>123</ele>
        <time>2021-10-05T17:14:59+02:00</time>
      </trkpt>
      <trkpt lat="50.09793" lon="2.85714">
        <ele>125</ele>
        <time>2021-10-05T17:15:04+02:00</time>
      </trkpt>
      <trkpt lat="50.09818" lon="2.86597">
        <ele>129</ele>
        <time>2021-10-05T17:15:09+02:00</time>
      </trkpt>
      <trkpt lat="50.09719" lon="2.87371">
        <ele>123</ele>
        <time>2021-10-05T17:15:14+02:00</time>
      </trkpt>
      <trkpt lat="50.09692" lon="2.87226">
        <ele>124</ele>
        <time>2021-10-05T17:15:19+02:00</time>
      </trkpt>
      <trkpt lat="50.09612" lon="2.87226">
        <ele>123</ele>
        <time>2021-10-05T17:15:24+02:00</time>
      </trkpt>
      <trkpt lat="50.09472" lon="2.87413">
        <ele>119</ele>
        <time>2021-10-05T17:15:29+02:00</time>
      </trkpt>
      <trkpt lat="50.09356" lon="2.87487">
        <ele>117</ele>
        <time>2021-10-05T17:15:34+02:00</time>
      </trkpt>
      <trkpt lat="50.09179" lon="2.87769">
        <ele>124</ele>
        <time>2021-10-05T17:15:39+02:00</time>
      </trkpt>
      <trkpt lat="50.08868" lon="2.88164">
        <ele>131</ele>
        <time>2021-10-05T17:15:44+02:00</time>
      </trkpt>
      <trkpt lat="50.08827" lon="2.88325">
        <ele>128</ele>
        <time>2021-10-05T17:15:49+02:00</time>
      </trkpt>
      <trkpt lat="50.08724" lon="2.88421">
        <ele>126</ele>
        <time>2021-10-05T17:15:54+02:00</time>
      </trkpt>
      <trkpt lat="50.08584" lon="2.88633">
        <ele>128</ele>
        <time>2021-10-05T17:15:59+02:00</time>
      </trkpt>
      <trkpt lat="50.08485" lon="2.89153">
        <ele>125</ele>
        <time>2021-10-05T17:16:04+02:00</time>
      </trkpt>
      <trkpt lat="50.08458" lon="2.89417">
        <ele>126</ele>
        <time>2021-10-05T17:16:09+02:00</time>
      </trkpt>
      <trkpt lat="50.08272" lon="2.89632">
        <ele>124</ele>
        <time>2021-10-05T17:16:14+02:00</time>
      </trkpt>
      <trkpt lat="50.08081" lon="2.89966">
        <ele>125</ele>
        <time>2021-10-05T17:16:19+02:00</time>
      </trkpt>
      <trkpt lat="50.08023" lon="2.90191">
        <ele>123</ele>
        <time>2021-10-05T17:16:24+02:00</time>
      </trkpt>
      <trkpt lat="50.08042" lon="2.90345">
        <ele>123</ele>
        <time>2021-10-05T17:16:29+02:00</time>
      </trkpt>
      <trkpt lat="50.08209" lon="2.90567">
        <ele>124</ele>
        <time>2021-10-05T17:16:34+02:00</time>
      </trkpt>
      <trkpt lat="50.08264" lon="2.90705">
        <ele>126</ele>
        <time>2021-10-05T17:16:39+02:00</time>
      </trkpt>
      <trkpt lat="50.08441" lon="2.90798">
        <ele>120</ele>
        <time>2021-10-05T17:16:44+02:00</time>
      </trkpt>
      <trkpt lat="50.08143" lon="2.91167">
        <ele>121</ele>
        <time>2021-10-05T17:16:49+02:00</time>
      </trkpt>
      <trkpt lat="50.08042" lon="2.9135">
        <ele>116</ele>
        <time>2021-10-05T17:16:54+02:00</time>
      </trkpt>
      <trkpt lat="50.07949" lon="2.91569">
        <ele>123</ele>
        <time>2021-10-05T17:16:59+02:00</time>
      </trkpt>
      <trkpt lat="50.07819" lon="2.91806">
        <ele>122</ele>
        <time>2021-10-05T17:17:04+02:00</time>
      </trkpt>
      <trkpt lat="50.07726" lon="2.92102">
        <ele>121</ele>
        <time>2021-10-05T17:17:09+02:00</time>
      </trkpt>
      <trkpt lat="50.0773" lon="2.92262">
        <ele>123</ele>
        <time>2021-10-05T17:17:14+02:00</time>
      </trkpt>
      <trkpt lat="50.07563" lon="2.92381">
        <ele>125</ele>
        <time>2021-10-05T17:17:19+02:00</time>
      </trkpt>
      <trkpt lat="50.07514" lon="2.92583">
        <ele>126</ele>
        <time>2021-10-05T17:17:24+02:00</time>
      </trkpt>
      <trkpt lat="50.07337" lon="2.92734">
        <ele>122</ele>
        <time>2021-10-05T17:17:29+02:00</time>
      </trkpt>
      <trkpt lat="50.07159" lon="2.92821">
        <ele>125</ele>
        <time>2021-10-05T17:17:34+02:00</time>
      </trkpt>
      <trkpt lat="50.07096" lon="2.9294">
        <ele>128</ele>
        <time>2021-10-05T17:17:39+02:00</time>
      </trkpt>
      <trkpt lat="50.06976" lon="2.92934">
        <ele>128</ele>
        <time>2021-10-05T17:17:44+02:00</time>
      </trkpt>
      <trkpt lat="50.06252" lon="2.92718">
        <ele>129</ele>
        <time>2021-10-05T17:17:49+02:00</time>
      </trkpt>
      <trkpt lat="50.06127" lon="2.92558">
        <ele>132</ele>
        <time>2021-10-05T17:17:54+02:00</time>
      </trkpt>
      <trkpt lat="50.06021" lon="2.92776">
        <ele>133</ele>
        <time>2021-10-05T17:17:59+02:00</time>
      </trkpt>
      <trkpt lat="50.05846" lon="2.93101">
        <ele>131</ele>
        <time>2021-10-05T17:18:04+02:00</time>
      </trkpt>
      <trkpt lat="50.05628" lon="2.92779">
        <ele>130</ele>
        <time>2021-10-05T17:18:09+02:00</time>
      </trkpt>
      <trkpt lat="50.05384" lon="2.92824">
        <ele>128</ele>
        <time>2021-10-05T17:18:14+02:00</time>
      </trkpt>
      <trkpt lat="50.0524" lon="2.92795">
        <ele>129</ele>
        <time>2021-10-05T17:18:19+02:00</time>
      </trkpt>
      <trkpt lat="50.04854" lon="2.92522">
        <ele>130</ele>
        <time>2021-10-05T17:18:24+02:00</time>
      </trkpt>
      <trkpt lat="50.04582" lon="2.92461">
        <ele>129</ele>
        <time>2021-10-05T17:18:29+02:00</time>
      </trkpt>
      <trkpt lat="50.04353" lon="2.92564">
        <ele>132</ele>
        <time>2021-10-05T17:18:34+02:00</time>
      </trkpt>
      <trkpt lat="50.04221" lon="2.92494">
        <ele>130</ele>
        <time>2021-10-05T17:18:39+02:00</time>
      </trkpt>
      <trkpt lat="50.0333" lon="2.92359">
        <ele>143</ele>
        <time>2021-10-05T17:18:44+02:00</time>
      </trkpt>
      <trkpt lat="50.03027" lon="2.92224">
        <ele>148</ele>
        <time>2021-10-05T17:18:49+02:00</time>
      </trkpt>
      <trkpt lat="50.02864" lon="2.92198">
        <ele>153</ele>
        <time>2021-10-05T17:18:54+02:00</time>
      </trkpt>
      <trkpt lat="50.02643" lon="2.9216">
        <ele>153</ele>
        <time>2021-10-05T17:18:59+02:00</time>
      </trkpt>
      <trkpt lat="50.02268" lon="2.91887">
        <ele>150</ele>
        <time>2021-10-05T17:19:04+02:00</time>
      </trkpt>
      <trkpt lat="50.01896" lon="2.91614">
        <ele>151</ele>
        <time>2021-10-05T17:19:09+02:00</time>
      </trkpt>
      <trkpt lat="50.01419" lon="2.91218">
        <ele>144</ele>
        <time>2021-10-05T17:19:14+02:00</time>
      </trkpt>
      <trkpt lat="50.01232" lon="2.91228">
        <ele>147</ele>
        <time>2021-10-05T17:19:19+02:00</time>
      </trkpt>
      <trkpt lat="50.01155" lon="2.91424">
        <ele>147</ele>
        <time>2021-10-05T17:19:24+02:00</time>
      </trkpt>
      <trkpt lat="50.01002" lon="2.91434">
        <ele>149</ele>
        <time>2021-10-05T17:19:29+02:00</time>
      </trkpt>
      <trkpt lat="50.00738" lon="2.91768">
        <ele>138</ele>
        <time>2021-10-05T17:19:34+02:00</time>
      </trkpt>
      <trkpt lat="50.00522" lon="2.92015">
        <ele>130</ele>
        <time>2021-10-05T17:19:39+02:00</time>
      </trkpt>
      <trkpt lat="50.00354" lon="2.9214">
        <ele>126</ele>
        <time>2021-10-05T17:19:44+02:00</time>
      </trkpt>
      <trkpt lat="50.00164" lon="2.92153">
        <ele>130</ele>
        <time>2021-10-05T17:19:49+02:00</time>
      </trkpt>
      <trkpt lat="49.99861" lon="2.92195">
        <ele>135</ele>
        <time>2021-10-05T17:19:54+02:00</time>
      </trkpt>
      <trkpt lat="49.99768" lon="2.92185">
        <ele>133</ele>
        <time>2021-10-05T17:19:59+02:00</time>
      </trkpt>
      <trkpt lat="49.99425" lon="2.92031">
        <ele>121</ele>
        <time>2021-10-05T17:20:04+02:00</time>
      </trkpt>
      <trkpt lat="49.99217" lon="2.9198">
        <ele>125</ele>
        <time>2021-10-05T17:20:09+02:00</time>
      </trkpt>
      <trkpt lat="49.99056" lon="2.91944">
        <ele>121</ele>
        <time>2021-10-05T17:20:14+02:00</time>
      </trkpt>
      <trkpt lat="49.98876" lon="2.9196">
        <ele>113</ele>
        <time>2021-10-05T17:20:19+02:00</time>
      </trkpt>
      <trkpt lat="49.98657" lon="2.9206">
        <ele>105</ele>
        <time>2021-10-05T17:20:24+02:00</time>
      </trkpt>
      <trkpt lat="49.98488" lon="2.92217">
        <ele>103</ele>
        <time>2021-10-05T17:20:29+02:00</time>
      </trkpt>
      <trkpt lat="49.98436" lon="2.92147">
        <ele>104</ele>
        <time>2021-10-05T17:20:34+02:00</time>
      </trkpt>
      <trkpt lat="49.98397" lon="2.92156">
        <ele>108</ele>
        <time>2021-10-05T17:20:39+02:00</time>
      </trkpt>
      <trkpt lat="49.98426" lon="2.92233">
        <ele>108</ele>
        <time>2021-10-05T17:20:44+02:00</time>
      </trkpt>
      <trkpt lat="49.98323" lon="2.92407">
        <ele>121</ele>
        <time>2021-10-05T17:20:49+02:00</time>
      </trkpt>
      <trkpt lat="49.98063" lon="2.92725">
        <ele>135</ele>
        <time>2021-10-05T17:20:54+02:00</time>
      </trkpt>
      <trkpt lat="49.97868" lon="2.92953">
        <ele>133</ele>
        <time>2021-10-05T17:20:59+02:00</time>
      </trkpt>
      <trkpt lat="49.97726" lon="2.92962">
        <ele>128</ele>
        <time>2021-10-05T17:21:04+02:00</time>
      </trkpt>
      <trkpt lat="49.97544" lon="2.92978">
        <ele>119</ele>
        <time>2021-10-05T17:21:09+02:00</time>
      </trkpt>
      <trkpt lat="49.97364" lon="2.93007">
        <ele>114</ele>
        <time>2021-10-05T17:21:14+02:00</time>
      </trkpt>
      <trkpt lat="49.96848" lon="2.93094">
        <ele>93</ele>
        <time>2021-10-05T17:21:19+02:00</time>
      </trkpt>
      <trkpt lat="49.96629" lon="2.93107">
        <ele>82</ele>
        <time>2021-10-05T17:21:24+02:00</time>
      </trkpt>
      <trkpt lat="49.96104" lon="2.9311">
        <ele>62</ele>
        <time>2021-10-05T17:21:29+02:00</time>
      </trkpt>
      <trkpt lat="49.96098" lon="2.93412">
        <ele>63</ele>
        <time>2021-10-05T17:21:34+02:00</time>
      </trkpt>
      <trkpt lat="49.96119" lon="2.93592">
        <ele>62</ele>
        <time>2021-10-05T17:21:39+02:00</time>
      </trkpt>
      <trkpt lat="49.96208" lon="2.93672">
        <ele>64</ele>
        <time>2021-10-05T17:21:44+02:00</time>
      </trkpt>
      <trkpt lat="49.9622" lon="2.93769">
        <ele>64</ele>
        <time>2021-10-05T17:21:49+02:00</time>
      </trkpt>
      <trkpt lat="49.96152" lon="2.93871">
        <ele>61</ele>
        <time>2021-10-05T17:21:54+02:00</time>
      </trkpt>
      <trkpt lat="49.96181" lon="2.94025">
        <ele>62</ele>
        <time>2021-10-05T17:21:59+02:00</time>
      </trkpt>
      <trkpt lat="49.96162" lon="2.94164">
        <ele>64</ele>
        <time>2021-10-05T17:22:04+02:00</time>
      </trkpt>
      <trkpt lat="49.96104" lon="2.94286">
        <ele>61</ele>
        <time>2021-10-05T17:22:09+02:00</time>
      </trkpt>
      <trkpt lat="49.95885" lon="2.94321">
        <ele>61</ele>
        <time>2021-10-05T17:22:14+02:00</time>
      </trkpt>
      <trkpt lat="49.95856" lon="2.94144">
        <ele>62</ele>
        <time>2021-10-05T17:22:19+02:00</time>
      </trkpt>
      <trkpt lat="49.95755" lon="2.94147">
        <ele>64</ele>
        <time>2021-10-05T17:22:24+02:00</time>
      </trkpt>
      <trkpt lat="49.95668" lon="2.94218">
        <ele>67</ele>
        <time>2021-10-05T17:22:29+02:00</time>
      </trkpt>
      <trkpt lat="49.95406" lon="2.94016">
        <ele>77</ele>
        <time>2021-10-05T17:22:34+02:00</time>
      </trkpt>
      <trkpt lat="49.95245" lon="2.93791">
        <ele>89</ele>
        <time>2021-10-05T17:22:39+02:00</time>
      </trkpt>
      <trkpt lat="49.95172" lon="2.93666">
        <ele>91</ele>
        <time>2021-10-05T17:22:44+02:00</time>
      </trkpt>
      <trkpt lat="49.95015" lon="2.93502">
        <ele>95</ele>
        <time>2021-10-05T17:22:49+02:00</time>
      </trkpt>
      <trkpt lat="49.94873" lon="2.93235">
        <ele>93</ele>
        <time>2021-10-05T17:22:54+02:00</time>
      </trkpt>
      <trkpt lat="49.94621" lon="2.93637">
        <ele>103</ele>
        <time>2021-10-05T17:22:59+02:00</time>
      </trkpt>
      <trkpt lat="49.94569" lon="2.93836">
        <ele>99</ele>
        <time>2021-10-05T17:23:04+02:00</time>
      </trkpt>
      <trkpt lat="49.94379" lon="2.93605">
        <ele>87</ele>
        <time>2021-10-05T17:23:09+02:00</time>
      </trkpt>
      <trkpt lat="49.94268" lon="2.93464">
        <ele>82</ele>
        <time>2021-10-05T17:23:14+02:00</time>
      </trkpt>
      <trkpt lat="49.94197" lon="2.93631">
        <ele>80</ele>
        <time>2021-10-05T17:23:19+02:00</time>
      </trkpt>
      <trkpt lat="49.94132" lon="2.93708">
        <ele>77</ele>
        <time>2021-10-05T17:23:24+02:00</time>
      </trkpt>
      <trkpt lat="49.94058" lon="2.93733">
        <ele>74</ele>
        <time>2021-10-05T17:23:29+02:00</time>
      </trkpt>
      <trkpt lat="49.94001" lon="2.93722">
        <ele>73</ele>
        <time>2021-10-05T17:23:34+02:00</time>
      </trkpt>
      <trkpt lat="49.93845" lon="2.93733">
        <ele>68</ele>
        <time>2021-10-05T17:23:39+02:00</time>
      </trkpt>
      <trkpt lat="49.93831" lon="2.936">
        <ele>71</ele>
        <time>2021-10-05T17:23:44+02:00</time>
      </trkpt>
      <trkpt lat="49.93764" lon="2.93592">
        <ele>68</ele>
        <time>2021-10-05T17:23:49+02:00</time>
      </trkpt>
      <trkpt lat="49.93714" lon="2.93615">
        <ele>66</ele>
        <time>2021-10-05T17:23:54+02:00</time>
      </trkpt>
      <trkpt lat="49.93676" lon="2.93655">
        <ele>64</ele>
        <time>2021-10-05T17:23:59+02:00</time>
      </trkpt>
      <trkpt lat="49.93562" lon="2.93856">
        <ele>58</ele>
        <time>2021-10-05T17:24:04+02:00</time>
      </trkpt>
      <trkpt lat="49.93488" lon="2.93901">
        <ele>55</ele>
        <time>2021-10-05T17:24:09+02:00</time>
      </trkpt>
      <trkpt lat="49.93322" lon="2.93916">
        <ele>54</ele>
        <time>2021-10-05T17:24:14+02:00</time>
      </trkpt>
      <trkpt lat="49.93412" lon="2.94121">
        <ele>55</ele>
        <time>2021-10-05T17:24:19+02:00</time>
      </trkpt>
    </trkseg>
  </trk>
</gpx>